KTRI/TRI METAR and TAF weather

Enter ICAO airport designator
Station Type Date Time Source
KTRI METAR 2022/12/05 14:53 UTC NOAA

KTRI 051453Z 04004KT 10SM SCT150 BKN250 04/M01 A3015 RMK AO2 SLP207 T00391006 53006


Station Type Date Time Source
KTRI Decoded METAR 2022/12/05 14:53 UTC NOAA

TRI-CITY REGIONAL AIRPORT, TN, United States (KTRI) 36-28N 082-24W 474M
Dec 05, 2022 - 09:53 AM EST / 2022.12.05 1453 UTC
Wind: from the NE (040 degrees) at 5 MPH (4 KT):0
Visibility: 10 mile(s):0
Sky conditions: mostly cloudy
Temperature: 39.0 F (3.9 C)
Dew Point: 30.9 F (-0.6 C)
Relative Humidity: 72%
Pressure (altimeter): 30.15 in. Hg (1020 hPa)
Pressure tendency: 0.02 inches (0.6 hPa) higher than three hours ago
ob: KTRI 051453Z 04004KT 10SM SCT150 BKN250 04/M01 A3015 RMK AO2 SLP207 T00391006 53006
cycle: 15

Station Type Date Time Source
KTRI TAF 2022/12/05 12:22 UTC NOAA

TAF KTRI 051120Z 0512/0612 VRB02KT P6SM BKN250
FM051700 VRB03KT P6SM VCSH BKN060
FM060100 VRB02KT 5SM -SHRA BR SCT010 OVC020
FM060400 VRB02KT 3SM -SHRA BR SCT007 OVC015
TEMPO 0608/0612 2SM SHRA OVC007

Example: see airport list